sensor_id;sensor_type;location;lat;lon;timestamp;pressure;altitude;pressure_sealevel;temperature;humidity
57616;BME280;43816;52.054;-9.494;2023-03-03T00:00:03;102504.31;;;18.33;39.64
57616;BME280;43816;52.054;-9.494;2023-03-03T00:00:14;102508.78;;;18.34;39.46
57616;BME280;43816;52.054;-9.494;2023-03-03T00:00:24;102476.72;;;18.15;39.61
57616;BME280;43816;52.054;-9.494;2023-03-03T00:00:35;102505.56;;;18.29;39.29
57616;BME280;43816;52.054;-9.494;2023-03-03T00:00:45;102485.41;;;18.20;39.55
57616;BME280;43816;52.054;-9.494;2023-03-03T00:00:55;102496.50;;;18.28;39.46
57616;BME280;43816;52.054;-9.494;2023-03-03T00:01:06;102492.19;;;18.26;39.33
57616;BME280;43816;52.054;-9.494;2023-03-03T00:01:16;102481.78;;;18.20;39.54
57616;BME280;43816;52.054;-9.494;2023-03-03T00:01:27;102504.31;;;18.33;39.47
57616;BME280;43816;52.054;-9.494;2023-03-03T00:01:37;102510.66;;;18.34;39.43
57616;BME280;43816;52.054;-9.494;2023-03-03T00:01:47;102504.31;;;18.33;39.22
57616;BME280;43816;52.054;-9.494;2023-03-03T00:01:58;102503.56;;;18.31;39.64
57616;BME280;43816;52.054;-9.494;2023-03-03T00:02:08;102495.78;;;18.26;39.45
57616;BME280;43816;52.054;-9.494;2023-03-03T00:02:18;102509.75;;;18.33;39.46
57616;BME280;43816;52.054;-9.494;2023-03-03T00:02:29;102495.66;;;18.28;39.40
57616;BME280;43816;52.054;-9.494;2023-03-03T00:02:39;102484.50;;;18.20;39.62
57616;BME280;43816;52.054;-9.494;2023-03-03T00:02:49;102492.19;;;18.26;39.45
57616;BME280;43816;52.054;-9.494;2023-03-03T00:03:03;102487.84;;;18.23;39.67
57616;BME280;43816;52.054;-9.494;2023-03-03T00:03:18;102505.31;;;18.32;39.61
57616;BME280;43816;52.054;-9.494;2023-03-03T00:03:29;102505.31;;;18.32;39.62
57616;BME280;43816;52.054;-9.494;2023-03-03T00:03:39;102497.66;;;18.26;39.32
57616;BME280;43816;52.054;-9.494;2023-03-03T00:03:50;102506.53;;;18.28;39.52
57616;BME280;43816;52.054;-9.494;2023-03-03T00:04:01;102507.16;;;18.31;39.72
57616;BME280;43816;52.054;-9.494;2023-03-03T00:04:11;102496.91;;;18.24;39.33
57616;BME280;43816;52.054;-9.494;2023-03-03T00:04:21;102492.44;;;18.23;39.71
57616;BME280;43816;52.054;-9.494;2023-03-03T00:04:32;102497.66;;;18.26;39.52
57616;BME280;43816;52.054;-9.494;2023-03-03T00:04:42;102490.56;;;18.23;39.56
57616;BME280;43816;52.054;-9.494;2023-03-03T00:04:52;102477.34;;;18.19;39.20
57616;BME280;43816;52.054;-9.494;2023-03-03T00:05:03;102498.50;;;18.26;39.46
57616;BME280;43816;52.054;-9.494;2023-03-03T00:05:13;102483.78;;;18.18;39.45
57616;BME280;43816;52.054;-9.494;2023-03-03T00:05:24;102489.72;;;18.23;39.42
57616;BME280;43816;52.054;-9.494;2023-03-03T00:05:34;102516.22;;;18.32;39.32
57616;BME280;43816;52.054;-9.494;2023-03-03T00:05:45;102481.06;;;18.18;39.70
57616;BME280;43816;52.054;-9.494;2023-03-03T00:05:55;102502.84;;;18.29;39.44
57616;BME280;43816;52.054;-9.494;2023-03-03T00:06:08;102510.78;;;18.32;39.69
57616;BME280;43816;52.054;-9.494;2023-03-03T00:06:20;102497.88;;;18.23;39.34
57616;BME280;43816;52.054;-9.494;2023-03-03T00:06:30;102503.81;;;18.28;39.41
57616;BME280;43816;52.054;-9.494;2023-03-03T00:06:40;102503.09;;;18.26;39.54
57616;BME280;43816;52.054;-9.494;2023-03-03T00:06:51;102513.50;;;18.32;39.54
57616;BME280;43816;52.054;-9.494;2023-03-03T00:07:01;102501.34;;;18.25;39.37
57616;BME280;43816;52.054;-9.494;2023-03-03T00:07:11;102510.78;;;18.32;39.63
57616;BME280;43816;52.054;-9.494;2023-03-03T00:07:22;102500.75;;;18.21;39.50
57616;BME280;43816;52.054;-9.494;2023-03-03T00:07:32;102503.22;;;18.24;39.70
57616;BME280;43816;52.054;-9.494;2023-03-03T00:07:45;102503.81;;;18.28;39.55
57616;BME280;43816;52.054;-9.494;2023-03-03T00:07:55;102503.09;;;18.26;39.31
57616;BME280;43816;52.054;-9.494;2023-03-03T00:08:05;102493.69;;;18.19;39.76
57616;BME280;43816;52.054;-9.494;2023-03-03T00:08:17;102493.41;;;18.22;39.47
57616;BME280;43816;52.054;-9.494;2023-03-03T00:08:27;102509.03;;;18.31;39.63
57616;BME280;43816;52.054;-9.494;2023-03-03T00:08:38;102511.75;;;18.31;39.46
57616;BME280;43816;52.054;-9.494;2023-03-03T00:08:49;102510.91;;;18.30;39.60
57616;BME280;43816;52.054;-9.494;2023-03-03T00:08:59;102497.78;;;18.24;39.60
57616;BME280;43816;52.054;-9.494;2023-03-03T00:09:10;102490.84;;;18.20;39.36
57616;BME280;43816;52.054;-9.494;2023-03-03T00:09:20;102497.78;;;18.24;39.60
57616;BME280;43816;52.054;-9.494;2023-03-03T00:09:30;102500.63;;;18.23;39.75
57616;BME280;43816;52.054;-9.494;2023-03-03T00:09:41;102505.81;;;18.26;39.48
57616;BME280;43816;52.054;-9.494;2023-03-03T00:09:51;102498.00;;;18.21;39.52
57616;BME280;43816;52.054;-9.494;2023-03-03T00:10:01;102496.31;;;18.20;39.48
57616;BME280;43816;52.054;-9.494;2023-03-03T00:10:12;102512.59;;;18.31;39.48
57616;BME280;43816;52.054;-9.494;2023-03-03T00:10:23;102509.03;;;18.31;39.75
57616;BME280;43816;52.054;-9.494;2023-03-03T00:10:33;102507.28;;;18.30;39.54
57616;BME280;43816;52.054;-9.494;2023-03-03T00:10:44;102497.78;;;18.24;39.71
57616;BME280;43816;52.054;-9.494;2023-03-03T00:10:54;102512.72;;;18.30;39.76
57616;BME280;43816;52.054;-9.494;2023-03-03T00:11:05;102508.41;;;18.27;40.01
57616;BME280;43816;52.054;-9.494;2023-03-03T00:11:16;102496.31;;;18.20;39.78
57616;BME280;43816;52.054;-9.494;2023-03-03T00:11:26;102508.53;;;18.26;39.71
57616;BME280;43816;52.054;-9.494;2023-03-03T00:11:37;102501.47;;;18.23;39.70
57616;BME280;43816;52.054;-9.494;2023-03-03T00:11:53;102517.19;;;18.31;39.90
57616;BME280;43816;52.054;-9.494;2023-03-03T00:12:27;102518.19;;;18.30;39.88
57616;BME280;43816;52.054;-9.494;2023-03-03T00:12:46;102503.72;;;18.18;39.79
57616;BME280;43816;52.054;-9.494;2023-03-03T00:12:57;102519.94;;;18.31;39.74
57616;BME280;43816;52.054;-9.494;2023-03-03T00:13:16;102515.56;;;18.28;39.79
57616;BME280;43816;52.054;-9.494;2023-03-03T00:13:27;102505.94;;;18.24;39.71
57616;BME280;43816;52.054;-9.494;2023-03-03T00:13:54;102504.31;;;18.22;39.79
57616;BME280;43816;52.054;-9.494;2023-03-03T00:14:22;102516.47;;;18.29;39.90
57616;BME280;43816;52.054;-9.494;2023-03-03T00:14:33;102493.94;;;18.16;39.67
57616;BME280;43816;52.054;-9.494;2023-03-03T00:14:44;102513.25;;;18.24;39.94
57616;BME280;43816;52.054;-9.494;2023-03-03T00:14:54;102512.25;;;18.25;39.70
57616;BME280;43816;52.054;-9.494;2023-03-03T00:15:20;102510.13;;;18.28;39.66
57616;BME280;43816;52.054;-9.494;2023-03-03T00:15:31;102503.47;;;18.21;39.81
57616;BME280;43816;52.054;-9.494;2023-03-03T00:15:41;102506.78;;;18.25;39.74
57616;BME280;43816;52.054;-9.494;2023-03-03T00:15:53;102513.25;;;18.24;39.63
57616;BME280;43816;52.054;-9.494;2023-03-03T00:16:35;102502.84;;;18.18;39.81
57616;BME280;43816;52.054;-9.494;2023-03-03T00:16:46;102523.91;;;18.27;39.91
57616;BME280;43816;52.054;-9.494;2023-03-03T00:16:59;102506.06;;;18.23;39.96
57616;BME280;43816;52.054;-9.494;2023-03-03T00:17:29;102520.16;;;18.28;39.96
57616;BME280;43816;52.054;-9.494;2023-03-03T00:17:40;102508.06;;;18.21;39.87
57616;BME280;43816;52.054;-9.494;2023-03-03T00:17:52;102521.19;;;18.27;39.81
57616;BME280;43816;52.054;-9.494;2023-03-03T00:18:16;102515.09;;;18.23;40.09
57616;BME280;43816;52.054;-9.494;2023-03-03T00:18:34;102523.03;;;18.26;40.12
57616;BME280;43816;52.054;-9.494;2023-03-03T00:18:46;102523.03;;;18.26;40.11
57616;BME280;43816;52.054;-9.494;2023-03-03T00:18:57;102512.38;;;18.23;39.77
57616;BME280;43816;52.054;-9.494;2023-03-03T00:19:17;102513.00;;;18.27;39.74
57616;BME280;43816;52.054;-9.494;2023-03-03T00:19:37;102513.50;;;18.21;40.05
57616;BME280;43816;52.054;-9.494;2023-03-03T00:19:48;102497.66;;;18.15;40.00
57616;BME280;43816;52.054;-9.494;2023-03-03T00:20:01;102512.25;;;18.25;39.67
57616;BME280;43816;52.054;-9.494;2023-03-03T00:20:37;102502.59;;;18.21;39.70
57616;BME280;43816;52.054;-9.494;2023-03-03T00:20:52;102511.25;;;18.26;39.82
57616;BME280;43816;52.054;-9.494;2023-03-03T00:21:14;102515.22;;;18.22;39.87
57616;BME280;43816;52.054;-9.494;2023-03-03T00:21:32;102515.84;;;18.25;39.72
57616;BME280;43816;52.054;-9.494;2023-03-03T00:21:47;102516.72;;;18.26;39.79
57616;BME280;43816;52.054;-9.494;2023-03-03T00:21:58;102506.19;;;18.21;39.65
57616;BME280;43816;52.054;-9.494;2023-03-03T00:22:15;102513.13;;;18.25;39.67
57616;BME280;43816;52.054;-9.494;2023-03-03T00:22:35;102518.72;;;18.24;39.72
57616;BME280;43816;52.054;-9.494;2023-03-03T00:22:46;102510.03;;;18.19;40.21
57616;BME280;43816;52.054;-9.494;2023-03-03T00:23:16;102519.56;;;18.24;39.96
57616;BME280;43816;52.054;-9.494;2023-03-03T00:23:39;102511.50;;;18.23;39.78
57616;BME280;43816;52.054;-9.494;2023-03-03T00:23:50;102521.31;;;18.25;39.91
57616;BME280;43816;52.054;-9.494;2023-03-03T00:24:36;102505.56;;;18.18;40.05
57616;BME280;43816;52.054;-9.494;2023-03-03T00:24:47;102516.09;;;18.22;39.73
57616;BME280;43816;52.054;-9.494;2023-03-03T00:25:33;102490.75;;;18.10;40.06
57616;BME280;43816;52.054;-9.494;2023-03-03T00:25:44;102490.75;;;18.10;39.98
57616;BME280;43816;52.054;-9.494;2023-03-03T00:25:56;102499.63;;;18.12;39.78
57616;BME280;43816;52.054;-9.494;2023-03-03T00:26:30;102496.91;;;18.12;39.85
57616;BME280;43816;52.054;-9.494;2023-03-03T00:27:51;102492.84;;;18.07;39.98
57616;BME280;43816;52.054;-9.494;2023-03-03T00:28:47;102505.69;;;18.16;40.04
57616;BME280;43816;52.054;-9.494;2023-03-03T00:28:58;102516.22;;;18.21;39.85
57616;BME280;43816;52.054;-9.494;2023-03-03T00:29:35;102512.78;;;18.19;39.82
57616;BME280;43816;52.054;-9.494;2023-03-03T00:29:49;102499.88;;;18.09;40.07
57616;BME280;43816;52.054;-9.494;2023-03-03T00:30:05;102501.38;;;18.14;39.88
57616;BME280;43816;52.054;-9.494;2023-03-03T00:30:26;102508.31;;;18.18;39.83
57616;BME280;43816;52.054;-9.494;2023-03-03T00:30:37;102508.53;;;18.15;40.00
57616;BME280;43816;52.054;-9.494;2023-03-03T00:30:48;102509.16;;;18.18;40.17
57616;BME280;43816;52.054;-9.494;2023-03-03T00:31:00;102500.00;;;18.08;40.17
57616;BME280;43816;52.054;-9.494;2023-03-03T00:31:40;102513.75;;;18.18;40.35
57616;BME280;43816;52.054;-9.494;2023-03-03T00:31:50;102494.69;;;18.06;40.19
57616;BME280;43816;52.054;-9.494;2023-03-03T00:32:17;102517.31;;;18.18;40.06
57616;BME280;43816;52.054;-9.494;2023-03-03T00:32:41;102479.84;;;17.99;40.21
57616;BME280;43816;52.054;-9.494;2023-03-03T00:32:53;102515.50;;;18.19;39.98
57616;BME280;43816;52.054;-9.494;2023-03-03T00:33:24;102486.75;;;18.03;40.18
57616;BME280;43816;52.054;-9.494;2023-03-03T00:33:42;102510.16;;;18.17;39.99
57616;BME280;43816;52.054;-9.494;2023-03-03T00:34:09;102515.50;;;18.19;39.95
57616;BME280;43816;52.054;-9.494;2023-03-03T00:34:27;102509.16;;;18.18;40.06
57616;BME280;43816;52.054;-9.494;2023-03-03T00:34:37;102493.94;;;18.04;40.15
57616;BME280;43816;52.054;-9.494;2023-03-03T00:34:48;102503.22;;;18.13;40.00
57616;BME280;43816;52.054;-9.494;2023-03-03T00:35:31;102510.28;;;18.16;39.91
57616;BME280;43816;52.054;-9.494;2023-03-03T00:35:42;102485.78;;;18.04;40.10
57616;BME280;43816;52.054;-9.494;2023-03-03T00:35:52;102518.22;;;18.19;39.92
57616;BME280;43816;52.054;-9.494;2023-03-03T00:36:38;102515.50;;;18.19;40.17
57616;BME280;43816;52.054;-9.494;2023-03-03T00:36:52;102518.22;;;18.19;39.90
57616;BME280;43816;52.054;-9.494;2023-03-03T00:37:34;102495.41;;;18.08;39.72
57616;BME280;43816;52.054;-9.494;2023-03-03T00:37:44;102515.75;;;18.16;40.07
57616;BME280;43816;52.054;-9.494;2023-03-03T00:37:57;102507.06;;;18.10;39.88
57616;BME280;43816;52.054;-9.494;2023-03-03T00:38:16;102501.63;;;18.10;40.06
57616;BME280;43816;52.054;-9.494;2023-03-03T00:38:27;102516.47;;;18.18;39.81
57616;BME280;43816;52.054;-9.494;2023-03-03T00:38:37;102511.03;;;18.18;40.15
57616;BME280;43816;52.054;-9.494;2023-03-03T00:38:48;102505.34;;;18.09;40.07
57616;BME280;43816;52.054;-9.494;2023-03-03T00:39:38;102515.00;;;18.14;40.11
57616;BME280;43816;52.054;-9.494;2023-03-03T00:39:48;102508.06;;;18.09;39.89
57616;BME280;43816;52.054;-9.494;2023-03-03T00:40:22;102530.09;;;18.18;40.13
57616;BME280;43816;52.054;-9.494;2023-03-03T00:40:35;102489.47;;;18.03;40.10
57616;BME280;43816;52.054;-9.494;2023-03-03T00:40:47;102498.41;;;18.05;40.00
57616;BME280;43816;52.054;-9.494;2023-03-03T00:40:57;102496.66;;;18.04;40.14
57616;BME280;43816;52.054;-9.494;2023-03-03T00:41:22;102497.66;;;18.03;40.07
57616;BME280;43816;52.054;-9.494;2023-03-03T00:41:34;102497.41;;;18.06;40.52
57616;BME280;43816;52.054;-9.494;2023-03-03T00:41:45;102504.47;;;18.09;40.06
57616;BME280;43816;52.054;-9.494;2023-03-03T00:41:57;102509.56;;;18.14;40.07
57616;BME280;43816;52.054;-9.494;2023-03-03T00:42:14;102508.78;;;18.11;40.00
57616;BME280;43816;52.054;-9.494;2023-03-03T00:42:26;102497.28;;;18.08;40.26
57616;BME280;43816;52.054;-9.494;2023-03-03T00:42:36;102518.59;;;18.14;40.21
57616;BME280;43816;52.054;-9.494;2023-03-03T00:42:50;102495.06;;;18.02;40.01
57616;BME280;43816;52.054;-9.494;2023-03-03T00:43:01;102516.59;;;18.16;40.02
57616;BME280;43816;52.054;-9.494;2023-03-03T00:43:23;102512.00;;;18.17;40.17
57616;BME280;43816;52.054;-9.494;2023-03-03T00:43:34;102510.53;;;18.12;40.25
57616;BME280;43816;52.054;-9.494;2023-03-03T00:43:45;102506.06;;;18.11;40.08
57616;BME280;43816;52.054;-9.494;2023-03-03T00:43:56;102498.53;;;18.04;40.41
57616;BME280;43816;52.054;-9.494;2023-03-03T00:44:43;102518.47;;;18.16;40.31
57616;BME280;43816;52.054;-9.494;2023-03-03T00:44:57;102486.03;;;18.01;40.18
57616;BME280;43816;52.054;-9.494;2023-03-03T00:45:53;102514.84;;;18.15;40.16
57616;BME280;43816;52.054;-9.494;2023-03-03T00:46:04;102513.00;;;18.16;40.10
57616;BME280;43816;52.054;-9.494;2023-03-03T00:46:19;102516.59;;;18.16;40.01
57616;BME280;43816;52.054;-9.494;2023-03-03T00:46:30;102495.19;;;18.00;40.20
57616;BME280;43816;52.054;-9.494;2023-03-03T00:46:40;102494.94;;;18.03;40.23
57616;BME280;43816;52.054;-9.494;2023-03-03T00:46:50;102490.84;;;17.98;40.03
57616;BME280;43816;52.054;-9.494;2023-03-03T00:47:37;102518.59;;;18.14;40.04
57616;BME280;43816;52.054;-9.494;2023-03-03T00:47:51;102483.66;;;17.97;40.15
57616;BME280;43816;52.054;-9.494;2023-03-03T00:48:28;102497.41;;;18.06;40.35
57616;BME280;43816;52.054;-9.494;2023-03-03T00:48:42;102500.38;;;18.03;40.03
57616;BME280;43816;52.054;-9.494;2023-03-03T00:48:52;102515.84;;;18.14;39.90
57616;BME280;43816;52.054;-9.494;2023-03-03T00:49:18;102518.59;;;18.14;40.17
57616;BME280;43816;52.054;-9.494;2023-03-03T00:49:32;102498.66;;;18.02;39.75
57616;BME280;43816;52.054;-9.494;2023-03-03T00:49:42;102503.75;;;18.07;40.01
57616;BME280;43816;52.054;-9.494;2023-03-03T00:50:17;102518.59;;;18.14;40.08
57616;BME280;43816;52.054;-9.494;2023-03-03T00:50:32;102518.59;;;18.14;40.32
57616;BME280;43816;52.054;-9.494;2023-03-03T00:50:43;102505.47;;;18.08;40.15
57616;BME280;43816;52.054;-9.494;2023-03-03T00:50:55;102517.72;;;18.14;40.20
57616;BME280;43816;52.054;-9.494;2023-03-03T00:51:32;102510.03;;;18.07;39.73
57616;BME280;43816;52.054;-9.494;2023-03-03T00:51:43;102501.13;;;18.05;40.02
57616;BME280;43816;52.054;-9.494;2023-03-03T00:51:53;102521.44;;;18.12;40.10
57616;BME280;43816;52.054;-9.494;2023-03-03T00:52:12;102497.66;;;18.03;40.10
57616;BME280;43816;52.054;-9.494;2023-03-03T00:52:26;102514.13;;;18.13;40.11
57616;BME280;43816;52.054;-9.494;2023-03-03T00:52:44;102492.31;;;18.02;40.19
57616;BME280;43816;52.054;-9.494;2023-03-03T00:53:19;102508.31;;;18.06;39.71
57616;BME280;43816;52.054;-9.494;2023-03-03T00:53:30;102498.66;;;18.02;40.04
57616;BME280;43816;52.054;-9.494;2023-03-03T00:53:40;102498.78;;;18.01;39.63
57616;BME280;43816;52.054;-9.494;2023-03-03T00:53:50;102508.06;;;18.09;39.98
57616;BME280;43816;52.054;-9.494;2023-03-03T00:54:01;102501.38;;;18.02;40.04
57616;BME280;43816;52.054;-9.494;2023-03-03T00:54:11;102505.56;;;18.06;39.87
57616;BME280;43816;52.054;-9.494;2023-03-03T00:54:21;102513.25;;;18.12;39.84
57616;BME280;43816;52.054;-9.494;2023-03-03T00:54:31;102502.13;;;18.04;40.25
57616;BME280;43816;52.054;-9.494;2023-03-03T00:54:42;102505.56;;;18.06;39.93
57616;BME280;43816;52.054;-9.494;2023-03-03T00:54:53;102495.94;;;18.02;40.02
57616;BME280;43816;52.054;-9.494;2023-03-03T00:55:04;102517.72;;;18.14;40.19
57616;BME280;43816;52.054;-9.494;2023-03-03T00:55:15;102507.31;;;18.07;39.89
57616;BME280;43816;52.054;-9.494;2023-03-03T00:55:25;102498.66;;;18.02;39.92
57616;BME280;43816;52.054;-9.494;2023-03-03T00:55:36;102495.94;;;18.02;39.85
57616;BME280;43816;52.054;-9.494;2023-03-03T00:55:47;102498.06;;;17.99;40.04
57616;BME280;43816;52.054;-9.494;2023-03-03T00:55:57;102496.91;;;18.01;40.03
57616;BME280;43816;52.054;-9.494;2023-03-03T00:56:08;102498.66;;;18.02;39.64
57616;BME280;43816;52.054;-9.494;2023-03-03T00:56:18;102483.91;;;17.93;39.90
57616;BME280;43816;52.054;-9.494;2023-03-03T00:56:28;102500.38;;;18.03;40.50
57616;BME280;43816;52.054;-9.494;2023-03-03T00:56:39;102503.09;;;18.03;39.86
57616;BME280;43816;52.054;-9.494;2023-03-03T00:56:49;102499.88;;;17.98;40.09
57616;BME280;43816;52.054;-9.494;2023-03-03T00:56:59;102507.56;;;18.04;40.14
57616;BME280;43816;52.054;-9.494;2023-03-03T00:57:10;102491.47;;;18.01;40.18
57616;BME280;43816;52.054;-9.494;2023-03-03T00:57:21;102517.09;;;18.10;39.88
57616;BME280;43816;52.054;-9.494;2023-03-03T00:57:31;102514.25;;;18.11;39.89
57616;BME280;43816;52.054;-9.494;2023-03-03T00:57:41;102490.63;;;18.01;39.95
57616;BME280;43816;52.054;-9.494;2023-03-03T00:57:52;102512.53;;;18.10;39.71
57616;BME280;43816;52.054;-9.494;2023-03-03T00:58:03;102492.47;;;18.00;39.71
57616;BME280;43816;52.054;-9.494;2023-03-03T00:58:14;102508.31;;;18.06;39.89
57616;BME280;43816;52.054;-9.494;2023-03-03T00:58:25;102496.91;;;18.01;40.26
57616;BME280;43816;52.054;-9.494;2023-03-03T00:58:35;102500.38;;;18.03;39.92
57616;BME280;43816;52.054;-9.494;2023-03-03T00:58:45;102505.34;;;18.09;40.18
57616;BME280;43816;52.054;-9.494;2023-03-03T00:58:56;102512.53;;;18.10;40.29
57616;BME280;43816;52.054;-9.494;2023-03-03T00:59:06;102516.09;;;18.11;39.87
57616;BME280;43816;52.054;-9.494;2023-03-03T00:59:16;102509.94;;;18.09;39.85
57616;BME280;43816;52.054;-9.494;2023-03-03T00:59:26;102502.84;;;18.06;40.07
57616;BME280;43816;52.054;-9.494;2023-03-03T00:59:37;102508.91;;;18.10;39.80
57616;BME280;43816;52.054;-9.494;2023-03-03T00:59:48;102516.09;;;18.11;39.97
57616;BME280;43816;52.054;-9.494;2023-03-03T00:59:58;102493.47;;;17.99;39.92
57616;BME280;43816;52.054;-9.494;2023-03-03T01:00:14;102517.97;;;18.10;39.86
57616;BME280;43816;52.054;-9.494;2023-03-03T01:00:24;102494.31;;;18.00;39.96
57616;BME280;43816;52.054;-9.494;2023-03-03T01:00:35;102489.88;;;17.99;39.95
57616;BME280;43816;52.054;-9.494;2023-03-03T01:00:45;102517.97;;;18.10;40.17
57616;BME280;43816;52.054;-9.494;2023-03-03T01:00:55;102498.53;;;18.04;40.40
57616;BME280;43816;52.054;-9.494;2023-03-03T01:01:06;102510.78;;;18.09;40.18
57616;BME280;43816;52.054;-9.494;2023-03-03T01:01:16;102496.06;;;18.01;39.82
57616;BME280;43816;52.054;-9.494;2023-03-03T01:01:27;102489.88;;;17.99;40.01
57616;BME280;43816;52.054;-9.494;2023-03-03T01:01:37;102503.22;;;18.02;39.86
57616;BME280;43816;52.054;-9.494;2023-03-03T01:01:47;102516.09;;;18.11;39.81
57616;BME280;43816;52.054;-9.494;2023-03-03T01:01:58;102502.38;;;18.01;40.05
57616;BME280;43816;52.054;-9.494;2023-03-03T01:02:08;102511.91;;;18.07;39.86
57616;BME280;43816;52.054;-9.494;2023-03-03T01:02:18;102494.31;;;18.00;39.83
57616;BME280;43816;52.054;-9.494;2023-03-03T01:02:28;102501.38;;;18.02;39.96
57616;BME280;43816;52.054;-9.494;2023-03-03T01:02:39;102480.34;;;17.93;39.91
57616;BME280;43816;52.054;-9.494;2023-03-03T01:02:49;102494.31;;;18.00;40.29
57616;BME280;43816;52.054;-9.494;2023-03-03T01:03:05;102519.69;;;18.11;40.06
57616;BME280;43816;52.054;-9.494;2023-03-03T01:03:25;102489.00;;;17.98;39.97
57616;BME280;43816;52.054;-9.494;2023-03-03T01:03:36;102507.56;;;18.04;39.93
57616;BME280;43816;52.054;-9.494;2023-03-03T01:03:46;102512.53;;;18.10;39.95
57616;BME280;43816;52.054;-9.494;2023-03-03T01:03:56;102480.44;;;17.91;39.90
57616;BME280;43816;52.054;-9.494;2023-03-03T01:04:07;102493.47;;;17.99;40.20
57616;BME280;43816;52.054;-9.494;2023-03-03T01:04:17;102504.09;;;18.02;39.72
57616;BME280;43816;52.054;-9.494;2023-03-03T01:04:27;102517.97;;;18.10;39.98
57616;BME280;43816;52.054;-9.494;2023-03-03T01:04:39;102497.78;;;18.02;40.17
57616;BME280;43816;52.054;-9.494;2023-03-03T01:04:52;102522.53;;;18.10;39.90
57616;BME280;43816;52.054;-9.494;2023-03-03T01:05:02;102511.28;;;18.03;39.92
57616;BME280;43816;52.054;-9.494;2023-03-03T01:05:15;102513.50;;;18.09;39.94
57616;BME280;43816;52.054;-9.494;2023-03-03T01:05:25;102501.50;;;18.01;40.25
57616;BME280;43816;52.054;-9.494;2023-03-03T01:05:35;102514.00;;;18.03;39.92
57616;BME280;43816;52.054;-9.494;2023-03-03T01:05:46;102519.94;;;18.08;39.88
57616;BME280;43816;52.054;-9.494;2023-03-03T01:05:57;102519.94;;;18.08;39.87
57616;BME280;43816;52.054;-9.494;2023-03-03T01:06:08;102514.88;;;18.04;40.02
57616;BME280;43816;52.054;-9.494;2023-03-03T01:06:18;102502.59;;;17.98;40.03
57616;BME280;43816;52.054;-9.494;2023-03-03T01:06:29;102519.94;;;18.08;39.99
57616;BME280;43816;52.054;-9.494;2023-03-03T01:06:39;102503.38;;;18.00;39.80
57616;BME280;43816;52.054;-9.494;2023-03-03T01:06:49;102522.81;;;18.07;40.00
57616;BME280;43816;52.054;-9.494;2023-03-03T01:06:59;102519.81;;;18.10;40.00
57616;BME280;43816;52.054;-9.494;2023-03-03T01:07:10;102499.03;;;17.98;40.08
57616;BME280;43816;52.054;-9.494;2023-03-03T01:07:20;102512.28;;;18.02;40.03
57616;BME280;43816;52.054;-9.494;2023-03-03T01:07:30;102511.53;;;18.00;39.94
57616;BME280;43816;52.054;-9.494;2023-03-03T01:07:41;102514.47;;;18.08;40.00
57616;BME280;43816;52.054;-9.494;2023-03-03T01:07:51;102504.34;;;17.99;39.87
57616;BME280;43816;52.054;-9.494;2023-03-03T01:08:01;102504.09;;;18.02;39.85
57616;BME280;43816;52.054;-9.494;2023-03-03T01:08:12;102516.22;;;18.09;40.14
57616;BME280;43816;52.054;-9.494;2023-03-03T01:08:23;102507.56;;;18.04;39.69
57616;BME280;43816;52.054;-9.494;2023-03-03T01:08:33;102497.78;;;18.02;39.83
57616;BME280;43816;52.054;-9.494;2023-03-03T01:08:44;102519.94;;;18.08;39.87
57616;BME280;43816;52.054;-9.494;2023-03-03T01:08:54;102511.28;;;18.03;40.25
57616;BME280;43816;52.054;-9.494;2023-03-03T01:09:04;102491.97;;;17.95;39.97
57616;BME280;43816;52.054;-9.494;2023-03-03T01:09:14;102513.00;;;18.04;39.84
57616;BME280;43816;52.054;-9.494;2023-03-03T01:09:25;102506.97;;;18.01;39.88
57616;BME280;43816;52.054;-9.494;2023-03-03T01:09:35;102519.94;;;18.08;40.06
57616;BME280;43816;52.054;-9.494;2023-03-03T01:09:45;102509.31;;;18.05;39.71
57616;BME280;43816;52.054;-9.494;2023-03-03T01:09:55;102506.84;;;18.02;40.16
57616;BME280;43816;52.054;-9.494;2023-03-03T01:10:06;102495.94;;;17.91;40.10
57616;BME280;43816;52.054;-9.494;2023-03-03T01:10:17;102511.28;;;18.03;40.07
57616;BME280;43816;52.054;-9.494;2023-03-03T01:10:29;102498.41;;;17.94;40.13
57616;BME280;43816;52.054;-9.494;2023-03-03T01:10:45;102509.56;;;18.02;39.92
57616;BME280;43816;52.054;-9.494;2023-03-03T01:11:00;102523.66;;;18.07;39.79
57616;BME280;43816;52.054;-9.494;2023-03-03T01:11:16;102517.34;;;18.07;40.09
57616;BME280;43816;52.054;-9.494;2023-03-03T01:11:28;102519.06;;;18.08;39.84
57616;BME280;43816;52.054;-9.494;2023-03-03T01:11:39;102515.84;;;18.03;39.90
57616;BME280;43816;52.054;-9.494;2023-03-03T01:11:50;102501.75;;;17.98;40.19
57616;BME280;43816;52.054;-9.494;2023-03-03T01:12:01;102491.09;;;17.94;40.08
57616;BME280;43816;52.054;-9.494;2023-03-03T01:12:11;102493.94;;;17.93;39.87
57616;BME280;43816;52.054;-9.494;2023-03-03T01:12:22;102514.75;;;18.05;40.14
57616;BME280;43816;52.054;-9.494;2023-03-03T01:12:33;102516.72;;;18.03;39.74
57616;BME280;43816;52.054;-9.494;2023-03-03T01:12:43;102494.56;;;17.97;39.97
57616;BME280;43816;52.054;-9.494;2023-03-03T01:12:54;102499.88;;;17.98;40.01
57616;BME280;43816;52.054;-9.494;2023-03-03T01:13:05;102518.22;;;18.07;40.00
57616;BME280;43816;52.054;-9.494;2023-03-03T01:13:16;102479.84;;;17.88;40.01
57616;BME280;43816;52.054;-9.494;2023-03-03T01:13:29;102497.28;;;17.97;39.75
57616;BME280;43816;52.054;-9.494;2023-03-03T01:13:42;102506.59;;;18.05;39.76
57616;BME280;43816;52.054;-9.494;2023-03-03T01:13:53;102515.63;;;18.06;39.56
57616;BME280;43816;52.054;-9.494;2023-03-03T01:14:04;102501.38;;;18.02;39.73
57616;BME280;43816;52.054;-9.494;2023-03-03T01:14:14;102500.00;;;17.97;39.70
57616;BME280;43816;52.054;-9.494;2023-03-03T01:14:25;102504.34;;;17.99;39.95
57616;BME280;43816;52.054;-9.494;2023-03-03T01:14:35;102493.94;;;17.93;39.72
57616;BME280;43816;52.054;-9.494;2023-03-03T01:14:46;102504.34;;;17.99;39.97